createdAt,value
2019-05-18T03:43:25.127Z,26.60
2019-05-18T04:10:29.381Z,29.20
2019-05-18T04:12:58.315Z,32.55
2019-05-18T04:15:27.110Z,30.63
2019-05-18T04:18:17.207Z,27.70
2019-05-18T04:20:46.005Z,31.60
2019-05-18T04:25:51.185Z,23.70
2019-05-18T04:30:51.077Z,25.50
2019-05-18T04:33:43.412Z,26.17
2019-05-18T04:36:12.315Z,24.57
2019-05-18T04:38:43.197Z,28.03
2019-05-18T04:41:12.072Z,26.57
2019-05-18T04:43:40.916Z,23.30
2019-05-18T04:46:09.720Z,23.27
2019-05-18T04:49:05.093Z,25.43
2019-05-18T04:51:33.891Z,31.27
2019-05-18T04:54:19.259Z,26.60
2019-05-18T04:56:48.112Z,31.70
2019-05-18T04:59:22.995Z,25.83
2019-05-18T05:01:51.868Z,29.50
2019-05-18T05:04:30.616Z,28.00
2019-05-18T05:06:59.409Z,30.10
2019-05-18T05:09:28.259Z,30.93
2019-05-18T05:12:06.581Z,30.77
2019-05-18T05:14:35.400Z,28.53
2019-05-18T05:17:19.526Z,34.30
2019-05-18T05:19:48.449Z,34.83
2019-05-18T05:22:19.319Z,33.40
2019-05-18T05:24:48.198Z,36.27
2019-05-18T05:27:32.208Z,35.10
2019-05-18T05:30:01.021Z,32.90
2019-05-18T05:35:32.458Z,36.10
2019-05-18T05:38:01.287Z,33.07
2019-05-18T05:40:51.118Z,37.83
2019-05-18T05:43:19.954Z,38.40
2019-05-18T05:45:53.715Z,42.07
2019-05-18T05:48:22.559Z,41.23
2019-05-18T05:50:54.910Z,39.73
2019-05-18T05:53:23.731Z,38.73
2019-05-18T05:56:00.874Z,39.30
2019-05-18T05:58:29.678Z,38.67
2019-05-18T06:01:01.730Z,35.20
2019-05-18T06:03:30.594Z,36.10
2019-05-18T06:06:04.818Z,33.03
2019-05-18T06:08:33.739Z,34.93
2019-05-18T06:11:21.127Z,37.13
2019-05-18T06:13:49.960Z,35.63
2019-05-18T06:16:27.894Z,35.33
2019-05-18T06:18:56.746Z,36.40
2019-05-18T06:21:28.523Z,34.97
2019-05-18T06:36:42.242Z,33.27
2019-05-18T06:42:13.642Z,32.30
2019-05-18T06:44:42.604Z,31.10
2019-05-18T06:47:11.402Z,30.17
2019-05-18T06:49:40.244Z,29.90
2019-05-18T06:52:28.403Z,30.00
2019-05-18T06:55:16.468Z,27.33
2019-05-18T06:57:46.095Z,25.00
2019-05-18T07:00:16.549Z,25.73
2019-05-18T07:02:45.341Z,25.17
2019-05-18T07:05:14.210Z,26.07
2019-05-18T07:07:43.063Z,26.47
2019-05-18T07:10:29.089Z,25.43
2019-05-18T07:12:57.896Z,24.23
2019-05-18T07:15:26.801Z,27.47
2019-05-18T07:17:55.595Z,26.97
2019-05-18T07:20:25.571Z,26.67
2019-05-18T07:23:15.089Z,23.33
2019-05-18T07:25:43.957Z,22.63
2019-05-18T07:28:12.772Z,22.07
2019-05-18T07:30:45.716Z,20.67
2019-05-18T07:33:14.517Z,22.43
2019-05-18T07:35:46.918Z,26.43
2019-05-18T07:38:15.704Z,19.87
2019-05-18T07:40:44.598Z,21.60
2019-05-18T07:43:13.405Z,21.03
2019-05-18T07:45:50.280Z,19.80
2019-05-18T07:48:19.137Z,18.60
2019-05-18T07:50:47.964Z,19.73
2019-05-18T07:53:16.762Z,18.20
2019-05-18T07:55:53.773Z,16.37
2019-05-18T07:58:22.605Z,13.97
2019-05-18T08:00:59.618Z,15.70
2019-05-18T08:03:28.564Z,14.70
2019-05-18T08:05:57.430Z,13.10
2019-05-18T08:08:26.216Z,12.20
2019-05-18T08:10:57.040Z,10.70
2019-05-18T08:13:25.828Z,12.80
2019-05-18T08:15:55.705Z,12.37
2019-05-18T08:18:24.547Z,11.90
2019-05-18T08:21:07.757Z,12.73
2019-05-18T08:23:36.633Z,11.10
2019-05-18T08:26:05.485Z,11.77
2019-05-18T08:28:34.337Z,13.30
2019-05-18T08:40:58.327Z,11.13
2019-05-18T08:43:27.172Z,10.40
2019-05-18T08:45:55.908Z,10.30
2019-05-18T08:48:30.789Z,10.70
2019-05-18T08:50:59.609Z,10.67
2019-05-18T08:53:42.373Z,13.20
2019-05-18T08:56:11.172Z,11.93
2019-05-18T08:58:44.249Z,10.07
2019-05-18T09:01:13.031Z,9.33
2019-05-18T09:03:50.216Z,8.87
2019-05-18T09:06:18.994Z,7.80
2019-05-18T09:08:47.815Z,7.97
2019-05-18T09:11:16.675Z,7.93
2019-05-18T09:13:48.759Z,7.50
2019-05-18T09:16:17.601Z,7.27
2019-05-18T09:19:00.442Z,6.90
2019-05-18T09:21:29.226Z,6.23
2019-05-18T09:23:58.053Z,6.03
2019-05-18T09:26:28.881Z,5.53
2019-05-18T09:28:57.640Z,6.50
2019-05-18T09:31:32.498Z,6.30
2019-05-18T09:34:01.283Z,7.20
2019-05-18T09:36:30.101Z,10.17
2019-05-18T09:38:58.923Z,8.73
2019-05-18T09:41:30.925Z,7.40
2019-05-18T09:43:59.822Z,7.37
2019-05-18T09:46:28.671Z,7.30
2019-05-18T09:48:57.477Z,5.97
2019-05-18T09:51:33.434Z,6.33
2019-05-18T09:54:02.382Z,6.70
2019-05-18T09:56:38.554Z,6.83
2019-05-18T09:59:07.436Z,6.60
2019-05-18T10:01:39.797Z,7.03
2019-05-18T10:04:08.620Z,6.83
2019-05-18T10:06:49.894Z,6.13
2019-05-18T10:09:22.447Z,5.67
2019-05-18T10:11:51.253Z,6.80
2019-05-18T10:14:21.079Z,6.37
2019-05-18T10:16:49.890Z,6.60
2019-05-18T10:19:21.803Z,5.97
2019-05-18T10:21:50.627Z,5.93
2019-05-18T10:24:32.627Z,5.83
2019-05-18T10:27:01.449Z,5.80
2019-05-18T10:29:31.350Z,6.60
2019-05-18T10:32:00.273Z,6.07
2019-05-18T10:34:35.340Z,5.07
2019-05-18T10:37:04.127Z,5.33
2019-05-18T10:39:33.033Z,5.30
2019-05-18T10:42:01.839Z,4.80
2019-05-18T10:44:31.805Z,4.70
2019-05-18T10:47:00.603Z,4.43
2019-05-18T10:49:29.536Z,3.90
2019-05-18T10:51:58.345Z,4.20
2019-05-18T10:54:27.251Z,4.03
2019-05-18T10:56:56.125Z,3.80
2019-05-18T10:59:25.033Z,3.53
2019-05-18T11:01:53.842Z,4.03
2019-05-18T11:04:24.755Z,4.07
2019-05-18T11:06:53.640Z,4.00
2019-05-18T11:09:22.548Z,4.80
2019-05-18T11:11:51.497Z,3.70
2019-05-18T11:14:20.264Z,3.97
2019-05-18T11:16:51.179Z,3.93
2019-05-18T11:19:20.062Z,3.63
2019-05-18T11:21:49.021Z,4.13
2019-05-18T11:24:17.893Z,3.77
2019-05-18T11:26:47.772Z,3.70
2019-05-18T11:29:16.581Z,4.00
2019-05-18T11:31:47.505Z,3.80
2019-05-18T11:34:16.327Z,3.57
2019-05-18T11:36:46.202Z,4.10
2019-05-18T11:39:15.014Z,3.53
2019-05-18T11:41:44.892Z,3.57
2019-05-18T11:44:13.710Z,3.50
2019-05-18T11:46:43.707Z,3.20
2019-05-18T11:49:12.568Z,3.70
2019-05-18T11:51:42.416Z,3.50
2019-05-18T11:54:11.260Z,3.60
2019-05-18T11:56:41.160Z,3.50
2019-05-18T11:59:09.966Z,3.83
2019-05-18T12:01:38.882Z,3.67
2019-05-18T12:04:07.678Z,4.27
2019-05-18T12:06:37.628Z,3.33
2019-05-18T12:09:06.787Z,3.10
2019-05-18T12:11:35.601Z,3.00
2019-05-18T12:14:08.690Z,3.30
2019-05-18T12:16:37.494Z,2.90
2019-05-18T12:19:07.388Z,2.80
2019-05-18T12:21:36.324Z,2.70
2019-05-18T12:24:15.449Z,11.97
2019-05-18T12:26:37.632Z,3.30
2019-05-18T12:29:06.585Z,4.23
2019-05-18T12:31:35.411Z,3.53
2019-05-18T12:34:05.331Z,3.57
2019-05-18T12:36:34.219Z,3.70
2019-05-18T12:39:03.631Z,3.60
2019-05-18T12:41:32.424Z,4.57
2019-05-18T12:44:02.355Z,4.50
2019-05-18T12:46:31.208Z,7.07
2019-05-18T12:49:03.216Z,10.63
2019-05-18T12:51:32.054Z,24.77
2019-05-18T12:54:04.078Z,5.20
2019-05-18T12:56:32.907Z,3.80
2019-05-18T12:59:02.873Z,4.27
2019-05-18T13:01:32.384Z,10.13
2019-05-18T13:04:02.236Z,5.17
2019-05-18T13:06:31.063Z,34.47
2019-05-18T13:08:59.983Z,36.07
2019-05-18T13:11:28.815Z,9.67
2019-05-18T13:14:00.783Z,12.10
2019-05-18T13:16:29.640Z,10.70
2019-05-18T13:18:58.675Z,28.00
2019-05-18T13:21:27.611Z,4.47
2019-05-18T13:23:58.524Z,15.77
2019-05-18T15:30:28.073Z,2.00
2019-05-18T15:32:58.943Z,2.05
2019-05-18T15:35:27.753Z,2.35
2019-05-18T15:37:56.650Z,2.20
2019-05-18T15:40:25.493Z,1.65
2019-05-18T15:42:54.285Z,1.90
2019-05-18T15:45:24.812Z,1.50
2019-05-18T15:48:05.694Z,2.15
2019-05-18T15:50:37.573Z,2.30
2019-05-18T15:53:06.364Z,2.12
2019-05-18T15:55:44.313Z,1.80
2019-05-18T15:58:13.076Z,1.75
2019-05-18T16:00:41.918Z,1.90
2019-05-18T16:03:16.265Z,1.90
2019-05-18T16:05:45.055Z,2.10
2019-05-18T16:08:20.116Z,1.75
2019-05-18T16:10:48.910Z,2.00
2019-05-18T16:13:17.756Z,2.08
2019-05-18T16:15:46.574Z,1.90
2019-05-18T16:18:15.445Z,2.00
2019-05-18T16:20:44.244Z,2.10
2019-05-18T16:23:13.129Z,2.30
2019-05-18T16:25:41.918Z,2.22
2019-05-18T16:28:10.748Z,2.15
2019-05-18T16:30:39.664Z,2.20
2019-05-18T16:33:08.509Z,1.90
2019-05-18T16:35:44.746Z,2.27
2019-05-18T16:38:13.515Z,2.33
2019-05-18T16:40:42.339Z,1.98
2019-05-18T16:43:11.147Z,2.20
2019-05-18T16:45:40.009Z,3.58
2019-05-18T16:48:08.824Z,2.40
2019-05-18T16:50:37.685Z,2.90
2019-05-18T16:53:06.477Z,2.98
2019-05-18T16:55:35.314Z,3.00
2019-05-18T16:58:04.144Z,3.00
2019-05-18T17:00:32.928Z,2.83
2019-05-18T17:03:01.998Z,3.10
2019-05-18T17:05:30.777Z,2.98
2019-05-18T17:08:01.323Z,2.95
2019-05-18T17:10:31.456Z,3.20
2019-05-18T17:13:00.304Z,3.10
2019-05-18T17:15:29.146Z,3.35
2019-05-18T17:17:57.912Z,3.20
2019-05-18T17:20:26.733Z,3.02
2019-05-18T17:22:55.612Z,3.00
2019-05-18T17:25:24.439Z,2.98
2019-05-18T17:27:53.236Z,3.52
2019-05-18T17:30:22.159Z,3.25
2019-05-18T17:32:50.970Z,3.08
2019-05-18T17:35:23.406Z,3.10
2019-05-18T17:37:52.249Z,3.17
2019-05-18T17:40:21.238Z,3.12
2019-05-18T17:42:50.094Z,3.47
2019-05-18T17:45:18.921Z,2.70
2019-05-18T17:47:47.723Z,2.40
2019-05-18T17:50:16.587Z,3.00
2019-05-18T17:52:46.371Z,3.08
2019-05-18T17:55:16.477Z,3.05
2019-05-18T17:57:46.590Z,3.35
2019-05-18T18:00:15.683Z,3.35
2019-05-18T18:02:46.312Z,3.20
2019-05-18T18:05:15.049Z,3.80
2019-05-18T18:07:50.878Z,4.17
2019-05-18T18:10:19.691Z,3.27
2019-05-18T18:12:54.683Z,3.45
